Terminal Aerodrome Forecast
Issued by NWS

Home | Current Version | Previous Version | Text Only | Print | Product List | Glossary On
Versions: 1 2 3 4 5 6 7 8 9 10 11 12 13 14 15 16 17 18 19 20
000
FTUS44 KSJT 101149
TAFJCT
TAF
KJCT 101149Z 1012/1112 VRB05KT P6SM BKN025
     FM101700 19011G16KT P6SM SCT025
     FM110200 18005KT P6SM BKN015
     FM110700 18004KT P6SM OVC007=

USA.gov is the U.S. government's official web portal to all federal, state and local government web resources and services.